Time;durP1;ratioP1;P1;durP2;ratioP2;P2;SDS_P1;SDS_P2;PMS_P1;PMS_P2;Temp;Humidity;BMP_temperature;BMP_pressure;BME280_temperature;BME280_humidity;BME280_pressure;Samples;Min_cycle;Max_cycle;Signal;HPM_P1;HPM_P2
2023/08/10 00:01:03;;;;;;;0.10;0.10;;;12.70;55.00;;;;;;5092972;28;20685;-57
2023/08/10 00:03:33;;;;;;;0.20;0.20;;;12.70;55.00;;;;;;5092513;28;20205;-57
2023/08/10 00:06:04;;;;;;;0.20;0.20;;;12.80;55.10;;;;;;5092274;28;20221;-57
2023/08/10 00:08:35;;;;;;;0.20;0.20;;;12.80;55.10;;;;;;5092764;28;20205;-57
2023/08/10 00:11:08;;;;;;;0.10;0.10;;;12.80;55.10;;;;;;5092359;28;20198;-57
2023/08/10 00:13:39;;;;;;;0.10;0.10;;;12.80;55.10;;;;;;5092051;28;20190;-57
2023/08/10 00:16:09;;;;;;;0.10;0.10;;;12.80;55.00;;;;;;5092251;28;20218;-59
2023/08/10 00:18:40;;;;;;;0.10;0.10;;;12.80;55.00;;;;;;5092424;28;20194;-57
2023/08/10 00:21:11;;;;;;;0.20;0.20;;;12.80;54.90;;;;;;5092385;28;20222;-57
2023/08/10 00:23:41;;;;;;;0.10;0.10;;;12.80;54.90;;;;;;5092236;28;20213;-57
2023/08/10 00:26:14;;;;;;;0.10;0.10;;;12.80;54.80;;;;;;5091942;28;20681;-57
2023/08/10 00:28:44;;;;;;;0.10;0.10;;;12.80;54.80;;;;;;5092399;28;20197;-57
2023/08/10 00:31:15;;;;;;;0.10;0.10;;;12.80;54.90;;;;;;5081082;28;20198;-55
2023/08/10 00:33:46;;;;;;;0.10;0.10;;;12.80;54.90;;;;;;5091852;28;20198;-54
2023/08/10 00:36:16;;;;;;;0.10;0.10;;;12.80;54.90;;;;;;5088395;28;20206;-56
2023/08/10 00:38:47;;;;;;;0.10;0.10;;;12.80;54.90;;;;;;5086323;28;20207;-57
2023/08/10 00:41:19;;;;;;;0.10;0.10;;;12.80;54.90;;;;;;5089623;28;20224;-57
2023/08/10 00:43:50;;;;;;;0.10;0.10;;;12.80;54.90;;;;;;5091315;28;20202;-57
2023/08/10 00:46:21;;;;;;;0.20;0.20;;;12.80;55.00;;;;;;5091049;28;20220;-56
2023/08/10 00:48:52;;;;;;;0.15;0.15;;;12.80;55.00;;;;;;5078656;28;20193;-57
2023/08/10 00:51:23;;;;;;;0.20;0.20;;;12.80;55.00;;;;;;5096557;28;20660;-57
2023/08/10 00:53:54;;;;;;;0.10;0.10;;;12.80;55.00;;;;;;5080549;28;20606;-57
2023/08/10 00:56:27;;;;;;;0.20;0.20;;;12.80;55.00;;;;;;5089747;28;20214;-57
2023/08/10 00:58:58;;;;;;;0.15;0.15;;;12.90;54.90;;;;;;5090959;28;20196;-57
2023/08/10 01:01:29;;;;;;;0.10;0.10;;;12.90;55.00;;;;;;5090713;28;20236;-57
2023/08/10 01:03:59;;;;;;;0.10;0.10;;;12.80;54.90;;;;;;5089463;28;20658;-57
2023/08/10 01:06:40;;;;;;;0.10;0.10;;;12.90;54.90;;;;;;5109494;28;20619;-57
2023/08/10 01:09:15;;;;;;;0.20;0.20;;;12.90;54.90;;;;;;5111746;28;20232;-57
2023/08/10 01:12:04;;;;;;;0.10;0.10;;;12.90;54.90;;;;;;5070443;28;20245;-57
2023/08/10 01:14:42;;;;;;;0.20;0.20;;;12.90;55.00;;;;;;5073331;28;20195;-56
2023/08/10 01:17:18;;;;;;;0.10;0.10;;;12.90;55.00;;;;;;5090082;28;20224;-57
2023/08/10 01:19:52;;;;;;;0.20;0.20;;;12.90;55.00;;;;;;5091007;28;20262;-57
2023/08/10 01:22:27;;;;;;;0.10;0.10;;;12.90;55.10;;;;;;5090561;28;20194;-57
2023/08/10 01:25:04;;;;;;;0.10;0.10;;;12.90;55.10;;;;;;5087990;28;20197;-57
2023/08/10 01:27:35;;;;;;;0.10;0.10;;;12.90;55.10;;;;;;5091184;28;20206;-56
2023/08/10 01:30:08;;;;;;;0.10;0.10;;;12.90;55.20;;;;;;5089950;28;20194;-57
2023/08/10 01:32:39;;;;;;;0.10;0.10;;;12.90;55.10;;;;;;5090670;28;20649;-57
2023/08/10 01:35:10;;;;;;;0.10;0.10;;;12.90;55.10;;;;;;5089786;28;20194;-57
2023/08/10 01:37:41;;;;;;;0.10;0.10;;;12.90;55.10;;;;;;5091399;28;20248;-57
2023/08/10 01:40:14;;;;;;;0.10;0.10;;;12.90;55.10;;;;;;5090903;28;20685;-57
2023/08/10 01:42:45;;;;;;;0.10;0.10;;;12.90;55.00;;;;;;5091343;28;20237;-58
2023/08/10 01:45:16;;;;;;;0.10;0.10;;;12.90;54.90;;;;;;5090273;28;20186;-58
2023/08/10 01:47:54;;;;;;;0.10;0.10;;;13.00;55.00;;;;;;5090566;28;20251;-57
2023/08/10 01:50:27;;;;;;;0.10;0.10;;;12.90;54.90;;;;;;5090779;28;20194;-57
2023/08/10 01:53:03;;;;;;;0.20;0.20;;;13.00;55.00;;;;;;5086895;28;20214;-57
2023/08/10 01:55:36;;;;;;;0.10;0.10;;;12.90;54.90;;;;;;5073624;28;20194;-57
2023/08/10 01:58:07;;;;;;;0.10;0.10;;;12.90;54.90;;;;;;5070918;28;20658;-57
2023/08/10 02:00:45;;;;;;;0.10;0.10;;;12.90;54.90;;;;;;5089210;28;20213;-57
2023/08/10 02:03:15;;;;;;;0.10;0.10;;;13.00;55.00;;;;;;5115169;28;20189;-57
2023/08/10 02:05:46;;;;;;;0.10;0.10;;;12.90;55.00;;;;;;5114257;28;20213;-57
2023/08/10 02:08:17;;;;;;;0.10;0.10;;;13.00;55.00;;;;;;5114412;28;20198;-57
2023/08/10 02:10:49;;;;;;;0.10;0.10;;;13.00;55.00;;;;;;5115033;28;20518;-57
2023/08/10 02:13:20;;;;;;;0.20;0.20;;;13.00;55.00;;;;;;5115219;28;20193;-57
2023/08/10 02:15:52;;;;;;;0.10;0.10;;;13.00;55.00;;;;;;5114085;28;20220;-55
2023/08/10 02:18:22;;;;;;;0.10;0.10;;;13.00;55.00;;;;;;5114610;28;20186;-55
2023/08/10 02:20:54;;;;;;;0.10;0.10;;;13.00;54.80;;;;;;5098154;27;20225;-57
2023/08/10 02:23:24;;;;;;;0.10;0.10;;;13.00;54.70;;;;;;5086650;28;20211;-56
2023/08/10 02:25:57;;;;;;;0.10;0.10;;;13.00;54.70;;;;;;5090236;28;20214;-58
2023/08/10 02:28:27;;;;;;;0.10;0.10;;;13.00;54.60;;;;;;5093993;28;20196;-57
2023/08/10 02:30:58;;;;;;;0.10;0.10;;;13.00;54.70;;;;;;5092507;28;20235;-57
2023/08/10 02:33:29;;;;;;;0.10;0.10;;;13.00;54.70;;;;;;5093469;28;20198;-56
2023/08/10 02:35:59;;;;;;;0.15;0.15;;;13.10;54.70;;;;;;5093771;28;20214;-57
2023/08/10 02:38:30;;;;;;;0.10;0.10;;;13.10;54.70;;;;;;5093570;28;20260;-56
2023/08/10 02:41:02;;;;;;;0.20;0.20;;;13.10;54.70;;;;;;5094377;28;20222;-57
2023/08/10 02:43:33;;;;;;;0.10;0.10;;;13.10;54.70;;;;;;5093696;28;20186;-57
2023/08/10 02:46:04;;;;;;;0.10;0.10;;;13.10;54.80;;;;;;5093270;28;20210;-56
2023/08/10 02:48:35;;;;;;;0.10;0.10;;;13.10;54.70;;;;;;5093621;28;20244;-57
2023/08/10 02:51:06;;;;;;;0.20;0.20;;;13.10;54.70;;;;;;5093868;28;20555;-57
2023/08/10 02:53:36;;;;;;;0.20;0.20;;;13.20;54.80;;;;;;5084556;28;20203;-58
2023/08/10 02:56:09;;;;;;;0.10;0.10;;;13.10;54.80;;;;;;5101702;28;20218;-58
2023/08/10 02:58:40;;;;;;;0.10;0.10;;;13.20;54.80;;;;;;5114282;28;20664;-57
2023/08/10 03:01:11;;;;;;;0.10;0.10;;;13.20;54.80;;;;;;5113889;28;20772;-57
2023/08/10 03:03:42;;;;;;;0.10;0.10;;;13.20;54.80;;;;;;5113620;28;20280;-58
2023/08/10 03:06:12;;;;;;;0.10;0.10;;;13.20;54.80;;;;;;5113172;28;20210;-57
2023/08/10 03:08:43;;;;;;;0.10;0.10;;;13.20;54.80;;;;;;5113431;28;20189;-57
2023/08/10 03:11:16;;;;;;;0.20;0.20;;;13.20;54.90;;;;;;5083968;28;20190;-57
2023/08/10 03:13:46;;;;;;;0.10;0.10;;;13.20;54.90;;;;;;5093520;28;20194;-57
2023/08/10 03:16:17;;;;;;;0.10;0.10;;;13.30;55.00;;;;;;5092390;28;20206;-57
2023/08/10 03:18:48;;;;;;;0.10;0.10;;;13.30;54.90;;;;;;5092783;28;20646;-57
2023/08/10 03:21:18;;;;;;;0.10;0.10;;;13.30;54.90;;;;;;5082795;28;20217;-58
2023/08/10 03:23:49;;;;;;;0.10;0.10;;;13.30;54.90;;;;;;5082772;28;20207;-58
2023/08/10 03:26:22;;;;;;;0.10;0.10;;;13.30;54.90;;;;;;5081929;28;20218;-57
2023/08/10 03:28:52;;;;;;;0.10;0.10;;;13.30;54.90;;;;;;5092683;28;20198;-56
2023/08/10 03:31:23;;;;;;;0.20;0.20;;;13.30;54.80;;;;;;5093167;28;20533;-57
2023/08/10 03:33:54;;;;;;;0.10;0.10;;;13.30;54.80;;;;;;5092588;28;20230;-57
2023/08/10 03:36:28;;;;;;;0.10;0.10;;;13.30;54.80;;;;;;5092782;28;20210;-58
2023/08/10 03:38:58;;;;;;;0.10;0.10;;;13.30;54.70;;;;;;5092755;28;20190;-57
2023/08/10 03:41:31;;;;;;;0.10;0.10;;;13.30;54.70;;;;;;5092565;28;20266;-57
2023/08/10 03:44:01;;;;;;;0.10;0.10;;;13.30;54.60;;;;;;5092777;28;20198;-58
2023/08/10 03:46:32;;;;;;;0.10;0.10;;;13.40;54.70;;;;;;5086626;28;20214;-57
2023/08/10 03:49:02;;;;;;;0.10;0.10;;;13.40;54.70;;;;;;5092116;28;20206;-56
2023/08/10 03:51:33;;;;;;;0.20;0.20;;;13.40;54.70;;;;;;5092418;28;20190;-57
2023/08/10 03:54:04;;;;;;;0.10;0.10;;;13.40;54.70;;;;;;5079274;28;20206;-58
2023/08/10 03:56:37;;;;;;;0.10;0.10;;;13.40;54.70;;;;;;5081884;28;20214;-58
2023/08/10 03:59:08;;;;;;;0.10;0.10;;;13.40;54.70;;;;;;5092047;28;20208;-58
2023/08/10 04:01:39;;;;;;;0.10;0.10;;;13.40;54.50;;;;;;5092211;28;20475;-57
2023/08/10 04:04:10;;;;;;;0.10;0.10;;;13.40;54.50;;;;;;5092564;28;20194;-58
2023/08/10 04:06:41;;;;;;;0.10;0.10;;;13.40;54.60;;;;;;5092411;28;20292;-58
2023/08/10 04:09:12;;;;;;;0.10;0.10;;;13.50;54.60;;;;;;5092067;28;20225;-58
2023/08/10 04:11:44;;;;;;;0.10;0.10;;;13.40;54.60;;;;;;5092496;28;20472;-58
2023/08/10 04:14:15;;;;;;;0.10;0.10;;;13.40;54.60;;;;;;5091970;28;20254;-57
2023/08/10 04:16:45;;;;;;;0.10;0.10;;;13.40;54.60;;;;;;5091625;28;20210;-58
2023/08/10 04:19:16;;;;;;;0.10;0.10;;;13.50;54.60;;;;;;5091873;28;20201;-58
2023/08/10 04:21:48;;;;;;;0.17;0.17;;;13.50;54.60;;;;;;5091548;28;20213;-58
2023/08/10 04:24:18;;;;;;;0.10;0.10;;;13.50;54.60;;;;;;5080348;28;20205;-58
2023/08/10 04:26:51;;;;;;;0.10;0.10;;;13.50;54.50;;;;;;5091424;28;20202;-57
2023/08/10 04:29:25;;;;;;;0.10;0.10;;;13.50;54.50;;;;;;5091840;28;20200;-57
2023/08/10 04:31:55;;;;;;;0.10;0.10;;;13.60;54.60;;;;;;5091235;28;20190;-58
2023/08/10 04:34:26;;;;;;;0.10;0.10;;;13.60;54.60;;;;;;5091888;28;20216;-58
2023/08/10 04:36:57;;;;;;;0.10;0.10;;;13.60;54.60;;;;;;5095826;28;20214;-57
2023/08/10 04:39:27;;;;;;;0.10;0.10;;;13.60;54.60;;;;;;5091403;28;20193;-57
2023/08/10 04:42:00;;;;;;;0.10;0.10;;;13.60;54.60;;;;;;5102163;28;20581;-57
2023/08/10 04:44:30;;;;;;;0.10;0.10;;;13.60;54.50;;;;;;5111688;28;20193;-57
2023/08/10 04:47:01;;;;;;;0.10;0.10;;;13.60;54.60;;;;;;5111244;28;20277;-57
2023/08/10 04:49:32;;;;;;;0.10;0.10;;;13.60;54.50;;;;;;5111893;28;20201;-57
2023/08/10 04:52:02;;;;;;;0.10;0.10;;;13.70;54.60;;;;;;5110697;28;20196;-58
2023/08/10 04:54:33;;;;;;;0.10;0.10;;;13.70;54.60;;;;;;5077366;28;20651;-58
2023/08/10 04:57:06;;;;;;;0.10;0.10;;;13.70;54.60;;;;;;5071599;28;20229;-58
2023/08/10 04:59:38;;;;;;;0.10;0.10;;;13.70;54.60;;;;;;5071694;28;20195;-58
2023/08/10 05:02:08;;;;;;;0.20;0.20;;;13.70;54.60;;;;;;5074533;28;20250;-58
2023/08/10 05:04:39;;;;;;;0.20;0.20;;;13.70;54.60;;;;;;5071540;28;20195;-58
2023/08/10 05:07:10;;;;;;;0.10;0.10;;;13.70;54.60;;;;;;5071307;28;20218;-56
2023/08/10 05:09:40;;;;;;;0.10;0.10;;;13.70;54.60;;;;;;5071495;28;20198;-58
2023/08/10 05:12:13;;;;;;;0.17;0.17;;;13.70;54.70;;;;;;5071660;28;20198;-58
2023/08/10 05:14:44;;;;;;;0.10;0.10;;;13.70;54.70;;;;;;5071545;28;20206;-57
2023/08/10 05:17:14;;;;;;;0.10;0.10;;;13.80;54.80;;;;;;5070954;28;20218;-58
2023/08/10 05:19:45;;;;;;;0.10;0.10;;;13.80;54.70;;;;;;5075512;28;20194;-58
2023/08/10 05:22:16;;;;;;;0.10;0.10;;;13.80;54.70;;;;;;5090187;28;20218;-58
2023/08/10 05:24:46;;;;;;;0.10;0.10;;;13.80;54.70;;;;;;5089924;28;20630;-58
2023/08/10 05:27:19;;;;;;;0.10;0.10;;;13.80;54.70;;;;;;5090758;28;20206;-58
2023/08/10 05:29:50;;;;;;;0.10;0.10;;;13.80;54.70;;;;;;5104285;28;20246;-58
2023/08/10 05:32:20;;;;;;;0.10;0.10;;;13.90;54.70;;;;;;5111674;28;20197;-58
2023/08/10 05:34:51;;;;;;;0.10;0.10;;;13.80;54.60;;;;;;5111422;28;20661;-58
2023/08/10 05:37:21;;;;;;;0.13;0.13;;;13.80;54.60;;;;;;5108177;28;20213;-58
2023/08/10 05:39:52;;;;;;;0.10;0.10;;;13.80;54.70;;;;;;5091669;28;20319;-58
2023/08/10 05:42:25;;;;;;;0.20;0.20;;;13.80;54.60;;;;;;5089315;28;20281;-58
2023/08/10 05:44:55;;;;;;;0.15;0.15;;;13.80;54.60;;;;;;5088737;28;20198;-58
2023/08/10 05:47:26;;;;;;;0.10;0.10;;;13.80;54.50;;;;;;5094061;28;20214;-58
2023/08/10 05:49:57;;;;;;;0.10;0.10;;;13.80;54.60;;;;;;5094723;28;20499;-58
2023/08/10 05:52:27;;;;;;;0.10;0.10;;;13.90;54.50;;;;;;5095357;28;20205;-58
2023/08/10 05:54:58;;;;;;;0.10;0.10;;;13.90;54.50;;;;;;5088282;28;20198;-58
2023/08/10 05:57:30;;;;;;;0.13;0.13;;;13.90;54.50;;;;;;5093934;28;20221;-58
2023/08/10 06:00:01;;;;;;;0.10;0.10;;;13.90;54.60;;;;;;5093709;28;20190;-58
2023/08/10 06:02:32;;;;;;;0.10;0.10;;;13.90;54.60;;;;;;5095129;28;20705;-58
2023/08/10 06:05:06;;;;;;;0.10;0.10;;;13.90;54.70;;;;;;5094938;28;20186;-58
2023/08/10 06:07:36;;;;;;;0.10;0.10;;;13.90;54.70;;;;;;5094537;28;20213;-58
2023/08/10 06:10:07;;;;;;;0.10;0.10;;;13.80;54.70;;;;;;5094099;28;20274;-58
2023/08/10 06:12:41;;;;;;;0.15;0.15;;;13.90;54.80;;;;;;5093632;28;20194;-58
2023/08/10 06:15:13;;;;;;;0.10;0.10;;;13.80;54.80;;;;;;5094088;28;20194;-58
2023/08/10 06:17:43;;;;;;;0.10;0.10;;;13.80;54.80;;;;;;5094739;28;20218;-58
2023/08/10 06:20:16;;;;;;;0.10;0.10;;;13.90;54.80;;;;;;5094004;28;20616;-58
2023/08/10 06:22:47;;;;;;;0.10;0.10;;;13.90;54.80;;;;;;5092272;28;20689;-58
2023/08/10 06:25:18;;;;;;;0.10;0.10;;;13.90;55.40;;;;;;5088836;28;20198;-58
2023/08/10 06:27:51;;;;;;;0.10;0.10;;;13.90;54.80;;;;;;5094211;28;20229;-58
2023/08/10 06:30:22;;;;;;;0.10;0.10;;;13.90;54.80;;;;;;5094428;28;20201;-58
2023/08/10 06:32:53;;;;;;;0.10;0.10;;;13.90;54.80;;;;;;5093856;28;20209;-58
2023/08/10 06:35:24;;;;;;;0.20;0.20;;;13.90;54.80;;;;;;5108359;28;20200;-58
2023/08/10 06:37:55;;;;;;;0.10;0.10;;;13.90;54.80;;;;;;5104439;28;20198;-58
2023/08/10 06:40:26;;;;;;;0.10;0.10;;;13.90;54.80;;;;;;5108948;28;20193;-58
2023/08/10 06:42:58;;;;;;;0.10;0.10;;;13.90;54.80;;;;;;5113794;28;20253;-58
2023/08/10 06:45:29;;;;;;;0.10;0.10;;;13.90;54.80;;;;;;5114156;28;20190;-58
2023/08/10 06:48:00;;;;;;;0.10;0.10;;;13.90;54.80;;;;;;5113960;28;20201;-58
2023/08/10 06:50:30;;;;;;;0.10;0.10;;;13.90;54.80;;;;;;5113450;28;20216;-58
2023/08/10 06:53:02;;;;;;;0.10;0.10;;;13.90;54.80;;;;;;5106192;28;20662;-58
2023/08/10 06:55:32;;;;;;;0.10;0.10;;;13.90;54.80;;;;;;5087895;28;20190;-58
2023/08/10 06:58:05;;;;;;;0.10;0.10;;;13.90;54.80;;;;;;5093356;28;20235;-58
2023/08/10 07:00:36;;;;;;;0.10;0.10;;;13.90;54.70;;;;;;5093045;28;20201;-58
2023/08/10 07:03:07;;;;;;;0.10;0.10;;;13.90;54.70;;;;;;5094000;28;20218;-58
2023/08/10 07:05:40;;;;;;;0.10;0.10;;;13.90;54.70;;;;;;5092705;28;20221;-58
2023/08/10 07:08:11;;;;;;;0.10;0.10;;;13.90;54.70;;;;;;5093458;28;20194;-58
2023/08/10 07:10:42;;;;;;;0.03;0.03;;;13.90;54.70;;;;;;5090844;28;20202;-58
2023/08/10 07:13:14;;;;;;;0.10;0.10;;;13.90;54.70;;;;;;5074558;28;20237;-58
2023/08/10 07:15:47;;;;;;;0.10;0.10;;;13.90;54.70;;;;;;5092672;28;20210;-58
2023/08/10 07:18:17;;;;;;;0.10;0.10;;;13.90;54.70;;;;;;5092664;28;20194;-58
2023/08/10 07:20:48;;;;;;;0.10;0.10;;;13.90;54.80;;;;;;5107645;28;20243;-58
2023/08/10 07:23:20;;;;;;;0.10;0.10;;;13.90;54.80;;;;;;5099835;27;20226;-58
2023/08/10 07:25:51;;;;;;;0.10;0.10;;;13.90;54.80;;;;;;5075030;28;20250;-58
2023/08/10 07:28:24;;;;;;;0.10;0.10;;;13.90;54.80;;;;;;5072410;28;20337;-58
2023/08/10 07:30:54;;;;;;;0.10;0.10;;;13.90;54.80;;;;;;5088567;28;20533;-58
2023/08/10 07:33:25;;;;;;;0.10;0.10;;;13.90;54.70;;;;;;5092511;28;20826;-58
2023/08/10 07:35:56;;;;;;;0.10;0.10;;;13.90;54.70;;;;;;5107825;28;20221;-58
2023/08/10 07:38:26;;;;;;;0.10;0.10;;;13.90;54.60;;;;;;5113175;27;20193;-58
2023/08/10 07:40:57;;;;;;;0.10;0.10;;;13.80;54.60;;;;;;5111930;28;20205;-58
2023/08/10 07:43:29;;;;;;;0.10;0.10;;;13.80;54.60;;;;;;5108012;27;20685;-58
2023/08/10 07:46:00;;;;;;;0.10;0.10;;;13.80;54.60;;;;;;5072675;28;20254;-58
2023/08/10 07:48:31;;;;;;;0.13;0.13;;;13.80;54.60;;;;;;5072884;28;20194;-58
2023/08/10 07:51:01;;;;;;;0.10;0.10;;;13.80;54.60;;;;;;5072147;28;20199;-58
2023/08/10 07:53:32;;;;;;;0.10;0.10;;;13.80;54.50;;;;;;5072228;28;20199;-58
2023/08/10 07:56:03;;;;;;;0.10;0.10;;;13.80;54.50;;;;;;5071991;28;20218;-58
2023/08/10 07:58:35;;;;;;;0.10;0.10;;;13.80;54.50;;;;;;5071529;28;20195;-58
2023/08/10 08:01:11;;;;;;;0.10;0.10;;;13.80;54.50;;;;;;5072052;28;20432;-69
2023/08/10 08:03:41;;;;;;;0.20;0.20;;;13.80;54.50;;;;;;5071948;28;20704;-58
2023/08/10 08:06:12;;;;;;;0.10;0.10;;;13.80;54.50;;;;;;5071559;28;20222;-58
2023/08/10 08:08:42;;;;;;;0.10;0.10;;;13.80;54.50;;;;;;5072271;28;20202;-58
2023/08/10 08:11:13;;;;;;;0.10;0.10;;;13.80;54.50;;;;;;5072208;28;20666;-58
2023/08/10 08:13:46;;;;;;;0.10;0.10;;;13.80;54.50;;;;;;5072092;28;20194;-58
2023/08/10 08:16:16;;;;;;;0.10;0.10;;;13.80;54.50;;;;;;5071629;28;20221;-58
2023/08/10 08:18:49;;;;;;;0.20;0.20;;;13.70;54.50;;;;;;5071559;28;20195;-58
2023/08/10 08:21:21;;;;;;;0.10;0.10;;;13.70;54.50;;;;;;5071269;28;20276;-58
2023/08/10 08:23:52;;;;;;;0.10;0.10;;;13.70;54.40;;;;;;5071507;28;20586;-58
2023/08/10 08:26:24;;;;;;;0.10;0.10;;;13.70;54.50;;;;;;5071819;28;20211;-58
2023/08/10 08:28:57;;;;;;;0.10;0.10;;;13.70;54.40;;;;;;5071569;28;20285;-58
2023/08/10 08:31:28;;;;;;;0.17;0.17;;;13.70;54.40;;;;;;5071629;28;20267;-58
2023/08/10 08:33:58;;;;;;;0.10;0.10;;;13.70;54.40;;;;;;5071356;28;20203;-58
2023/08/10 08:36:29;;;;;;;0.10;0.10;;;13.70;54.40;;;;;;5071548;28;20214;-58
2023/08/10 08:39:00;;;;;;;0.10;0.10;;;13.70;54.40;;;;;;5080459;28;20190;-58
2023/08/10 08:41:39;;;;;;;0.10;0.10;;;13.70;54.40;;;;;;5091865;28;20198;-58
2023/08/10 08:44:12;;;;;;;0.10;0.10;;;13.70;54.40;;;;;;5091480;28;20205;-58
2023/08/10 08:46:45;;;;;;;0.20;0.20;;;13.70;54.40;;;;;;5090869;28;20210;-57
2023/08/10 08:49:16;;;;;;;0.10;0.10;;;13.70;54.40;;;;;;5091096;28;20190;-58
2023/08/10 08:51:48;;;;;;;0.10;0.10;;;13.70;54.40;;;;;;5092179;28;20202;-58
2023/08/10 08:54:18;;;;;;;0.10;0.10;;;13.70;54.50;;;;;;5077387;28;20202;-58
2023/08/10 08:56:49;;;;;;;0.10;0.10;;;13.70;54.50;;;;;;5071829;28;20719;-58
2023/08/10 08:59:22;;;;;;;0.20;0.20;;;13.70;54.50;;;;;;5071671;28;20244;-57
2023/08/10 09:01:53;;;;;;;0.10;0.10;;;13.60;54.40;;;;;;5069875;28;20733;-58
2023/08/10 09:04:23;;;;;;;0.10;0.10;;;13.60;54.40;;;;;;5074326;28;20563;-58
2023/08/10 09:06:54;;;;;;;0.10;0.10;;;13.60;54.40;;;;;;5075179;28;20228;-58
2023/08/10 09:09:25;;;;;;;0.10;0.10;;;13.60;54.50;;;;;;5074325;28;20737;-58
2023/08/10 09:11:55;;;;;;;0.10;0.10;;;13.60;54.40;;;;;;5089817;28;20202;-58
2023/08/10 09:14:29;;;;;;;0.10;0.10;;;13.60;54.40;;;;;;5091434;28;20194;-58
2023/08/10 09:17:00;;;;;;;0.10;0.10;;;13.60;54.40;;;;;;5075690;28;20225;-58
2023/08/10 09:19:31;;;;;;;0.17;0.17;;;13.60;54.40;;;;;;5090272;28;20202;-58
2023/08/10 09:22:01;;;;;;;0.10;0.10;;;13.60;54.40;;;;;;5080642;28;20197;-58
2023/08/10 09:24:33;;;;;;;0.20;0.20;;;13.60;54.40;;;;;;5077486;28;20210;-58
2023/08/10 09:27:05;;;;;;;0.10;0.10;;;13.60;54.40;;;;;;5078360;28;20205;-58
2023/08/10 09:29:40;;;;;;;0.10;0.10;;;13.60;54.40;;;;;;5090671;28;20208;-58
2023/08/10 09:32:11;;;;;;;0.17;0.17;;;13.60;54.50;;;;;;5091475;28;20664;-58
2023/08/10 09:34:47;;;;;;;0.13;0.13;;;13.60;55.00;;;;;;5090470;28;20194;-58
2023/08/10 09:37:18;;;;;;;0.20;0.20;;;13.60;54.50;;;;;;5090678;28;20206;-58
2023/08/10 09:39:49;;;;;;;0.10;0.10;;;13.50;54.40;;;;;;5090358;28;20194;-58
2023/08/10 09:42:19;;;;;;;0.10;0.10;;;13.50;54.40;;;;;;5095822;28;20190;-58
2023/08/10 09:44:53;;;;;;;0.10;0.10;;;13.50;54.40;;;;;;5093704;28;20206;-58
2023/08/10 09:47:23;;;;;;;0.10;0.10;;;13.50;54.40;;;;;;5078108;28;20210;-58
2023/08/10 09:50:00;;;;;;;0.10;0.10;;;13.50;54.40;;;;;;5089255;28;20190;-58
2023/08/10 09:52:31;;;;;;;0.10;0.10;;;13.50;54.50;;;;;;5089881;28;20353;-58
2023/08/10 09:55:02;;;;;;;0.10;0.10;;;13.50;54.50;;;;;;5070718;28;20571;-58
2023/08/10 09:57:33;;;;;;;0.10;0.10;;;13.50;54.50;;;;;;5080669;28;20297;-58
2023/08/10 10:00:10;;;;;;;0.10;0.10;;;13.50;54.50;;;;;;5085232;28;20198;-58
2023/08/10 10:02:40;;;;;;;0.13;0.13;;;13.50;54.50;;;;;;5075961;28;20210;-58
2023/08/10 10:05:11;;;;;;;0.10;0.10;;;13.50;54.50;;;;;;5089646;28;20202;-58
2023/08/10 10:07:42;;;;;;;0.10;0.10;;;13.50;54.50;;;;;;5089437;28;20624;-58
2023/08/10 10:10:16;;;;;;;0.10;0.10;;;13.50;54.50;;;;;;5090675;28;20244;-58
2023/08/10 10:12:50;;;;;;;0.10;0.10;;;13.40;54.50;;;;;;5090295;28;20190;-58
2023/08/10 10:15:25;;;;;;;0.10;0.10;;;13.50;55.10;;;;;;5090986;28;20497;-58
2023/08/10 10:17:56;;;;;;;0.10;0.10;;;13.50;54.60;;;;;;5090797;28;20386;-58
2023/08/10 10:20:27;;;;;;;0.10;0.10;;;13.40;54.50;;;;;;5090262;28;20198;-58
2023/08/10 10:22:58;;;;;;;0.10;0.10;;;13.40;54.50;;;;;;5091038;28;20219;-57
2023/08/10 10:25:28;;;;;;;0.10;0.10;;;13.40;54.50;;;;;;5073762;28;20681;-58
2023/08/10 10:27:59;;;;;;;0.10;0.10;;;13.40;54.60;;;;;;5081799;28;20194;-58
2023/08/10 10:30:32;;;;;;;0.10;0.10;;;13.40;54.60;;;;;;5093685;28;20229;-58
2023/08/10 10:33:03;;;;;;;0.10;0.10;;;13.40;54.60;;;;;;5093736;28;20708;-58
2023/08/10 10:35:36;;;;;;;0.10;0.10;;;13.40;54.60;;;;;;5094007;28;20377;-58
2023/08/10 10:38:08;;;;;;;0.10;0.10;;;13.40;54.60;;;;;;5093553;28;20194;-58
2023/08/10 10:40:39;;;;;;;0.10;0.10;;;13.40;54.60;;;;;;5094089;28;20182;-58
2023/08/10 10:43:11;;;;;;;0.10;0.10;;;13.40;54.60;;;;;;5094598;28;20267;-58
2023/08/10 10:45:44;;;;;;;0.20;0.20;;;13.40;54.60;;;;;;5093583;28;20218;-58
2023/08/10 10:48:16;;;;;;;0.10;0.10;;;13.40;54.60;;;;;;5102744;28;20524;-58
2023/08/10 10:50:47;;;;;;;0.10;0.10;;;13.40;54.50;;;;;;5113372;28;20185;-58
2023/08/10 10:53:25;;;;;;;0.10;0.10;;;13.40;54.60;;;;;;5101297;28;20202;-58
2023/08/10 10:55:56;;;;;;;0.10;0.10;;;13.40;54.60;;;;;;5072109;28;20226;-58
2023/08/10 10:58:29;;;;;;;0.10;0.10;;;13.40;54.60;;;;;;5090287;28;20190;-58
2023/08/10 11:01:03;;;;;;;0.10;0.10;;;13.40;54.60;;;;;;5093767;28;20201;-58
2023/08/10 11:03:34;;;;;;;0.10;0.10;;;13.40;54.60;;;;;;5093831;28;20253;-58
2023/08/10 11:06:06;;;;;;;0.10;0.10;;;13.40;54.60;;;;;;5092822;28;20225;-58
2023/08/10 11:08:36;;;;;;;0.10;0.10;;;13.40;55.20;;;;;;5092932;28;20649;-58
2023/08/10 11:11:07;;;;;;;0.10;0.10;;;13.40;54.60;;;;;;5086807;28;20186;-58
2023/08/10 11:13:38;;;;;;;0.10;0.10;;;13.40;54.60;;;;;;5084971;28;20266;-58
2023/08/10 11:16:11;;;;;;;0.00;0.00;;;13.40;54.60;;;;;;5092295;28;20214;-58
2023/08/10 11:18:42;;;;;;;0.10;0.10;;;13.40;54.60;;;;;;5092765;28;20190;-58
2023/08/10 11:21:13;;;;;;;0.10;0.10;;;13.40;54.60;;;;;;5092181;28;20536;-58
2023/08/10 11:23:43;;;;;;;0.10;0.10;;;13.40;54.60;;;;;;5082353;28;20226;-58
2023/08/10 11:26:14;;;;;;;0.10;0.10;;;13.30;54.60;;;;;;5073002;28;20214;-58
2023/08/10 11:28:45;;;;;;;0.10;0.10;;;13.30;54.60;;;;;;5083909;28;20186;-58
2023/08/10 11:31:17;;;;;;;0.10;0.10;;;13.40;54.60;;;;;;5092427;28;20185;-58
2023/08/10 11:33:49;;;;;;;0.10;0.10;;;13.40;54.60;;;;;;5091664;28;20195;-58
2023/08/10 11:36:19;;;;;;;0.10;0.10;;;13.30;54.60;;;;;;5092444;28;20611;-58
2023/08/10 11:38:50;;;;;;;0.10;0.10;;;13.30;54.60;;;;;;5088049;28;20686;-58
2023/08/10 11:41:21;;;;;;;0.10;0.10;;;13.30;54.60;;;;;;5089860;28;20197;-58
2023/08/10 11:43:51;;;;;;;0.10;0.10;;;13.30;54.60;;;;;;5102815;28;20240;-58
2023/08/10 11:46:25;;;;;;;0.10;0.10;;;13.30;54.60;;;;;;5112703;28;20926;-58
2023/08/10 11:48:56;;;;;;;0.10;0.10;;;13.30;54.60;;;;;;5112026;28;20277;-58
2023/08/10 11:51:35;;;;;;;0.10;0.10;;;13.30;54.60;;;;;;5112107;28;20439;-58
2023/08/10 11:54:12;;;;;;;0.10;0.10;;;13.30;54.60;;;;;;5088232;28;20545;-58
2023/08/10 11:56:51;;;;;;;0.10;0.10;;;13.30;54.60;;;;;;5073298;28;20258;-58
2023/08/10 11:59:22;;;;;;;0.13;0.13;;;13.20;54.60;;;;;;5072649;28;20198;-58
2023/08/10 12:01:58;;;;;;;0.10;0.10;;;13.20;54.60;;;;;;5072551;28;20195;-59
2023/08/10 12:04:33;;;;;;;0.10;0.10;;;13.20;54.60;;;;;;5072415;28;20268;-58
2023/08/10 12:07:04;;;;;;;0.10;0.10;;;13.30;54.60;;;;;;5072231;28;20214;-58
2023/08/10 12:09:35;;;;;;;0.10;0.10;;;13.20;54.60;;;;;;5072067;28;20244;-58
2023/08/10 12:12:08;;;;;;;0.10;0.10;;;13.20;54.60;;;;;;5072236;28;20647;-58
2023/08/10 12:14:38;;;;;;;0.10;0.10;;;13.20;54.50;;;;;;5072371;28;20210;-58
2023/08/10 12:17:11;;;;;;;0.20;0.20;;;13.20;54.50;;;;;;5072082;28;20646;-58
2023/08/10 12:19:41;;;;;;;0.10;0.10;;;13.20;54.60;;;;;;5072657;28;20257;-58
2023/08/10 12:22:12;;;;;;;0.10;0.10;;;13.20;54.50;;;;;;5072148;28;20206;-58
2023/08/10 12:24:43;;;;;;;0.10;0.10;;;13.20;54.50;;;;;;5089402;28;20249;-58
2023/08/10 12:27:15;;;;;;;0.10;0.10;;;13.10;54.50;;;;;;5091829;28;20217;-58
2023/08/10 12:29:45;;;;;;;0.10;0.10;;;13.20;54.50;;;;;;5091720;28;20198;-59
2023/08/10 12:32:18;;;;;;;0.10;0.10;;;13.20;54.50;;;;;;5092225;28;20653;-59
2023/08/10 12:34:48;;;;;;;0.10;0.10;;;13.10;54.50;;;;;;5092000;28;20665;-59
2023/08/10 12:37:19;;;;;;;0.10;0.10;;;13.10;54.50;;;;;;5092072;28;20224;-58
2023/08/10 12:39:50;;;;;;;0.10;0.10;;;13.10;54.50;;;;;;5091786;28;20198;-58
2023/08/10 12:42:20;;;;;;;0.10;0.10;;;13.10;54.50;;;;;;5092308;28;20202;-58
2023/08/10 12:44:51;;;;;;;0.17;0.17;;;13.10;54.50;;;;;;5092023;28;20222;-58
2023/08/10 12:47:23;;;;;;;0.10;0.10;;;13.10;55.10;;;;;;5092216;28;20225;-58
2023/08/10 12:49:54;;;;;;;0.10;0.10;;;13.10;54.50;;;;;;5091650;28;20198;-58
2023/08/10 12:52:25;;;;;;;0.20;0.20;;;13.10;54.50;;;;;;5091737;28;20243;-58
2023/08/10 12:54:55;;;;;;;0.10;0.10;;;13.10;54.50;;;;;;5071933;28;20202;-58
2023/08/10 12:57:26;;;;;;;0.10;0.10;;;13.10;54.50;;;;;;5071845;28;20218;-58
2023/08/10 12:59:57;;;;;;;0.15;0.15;;;13.00;54.40;;;;;;5071696;28;20190;-58
2023/08/10 13:02:29;;;;;;;0.10;0.10;;;13.00;54.40;;;;;;5071919;28;20441;-59
2023/08/10 13:05:00;;;;;;;0.10;0.10;;;13.00;54.40;;;;;;5071599;28;20583;-59
2023/08/10 13:07:30;;;;;;;0.10;0.10;;;13.00;54.40;;;;;;5071300;28;20226;-58
2023/08/10 13:10:02;;;;;;;0.10;0.10;;;13.00;54.40;;;;;;5071199;28;20459;-58